Time;durP1;ratioP1;P1;durP2;ratioP2;P2;SDS_P1;SDS_P2;PMS_P1;PMS_P2;Temp;Humidity;BMP_temperature;BMP_pressure;BME280_temperature;BME280_humidity;BME280_pressure;Samples;Min_cycle;Max_cycle;Signal;HPM_P1;HPM_P2
2022/04/12 00:00:55;;;;;;;24.45;20.05;;;7.90;99.90;;;;;;4938614;28;95304;-33
2022/04/12 00:03:21;;;;;;;21.90;19.52;;;7.80;99.90;;;;;;4939935;28;92483;-35
2022/04/12 00:05:47;;;;;;;28.02;21.38;;;7.80;99.90;;;;;;4938933;28;96564;-33
2022/04/12 00:08:12;;;;;;;22.40;19.55;;;7.80;99.90;;;;;;4939889;28;95027;-35
2022/04/12 00:10:38;;;;;;;26.35;20.77;;;7.70;99.90;;;;;;4939572;28;94198;-33
2022/04/12 00:13:04;;;;;;;25.98;21.27;;;7.70;99.90;;;;;;4939448;28;93605;-33
2022/04/12 00:15:29;;;;;;;24.58;19.83;;;7.60;99.90;;;;;;4939307;28;94496;-35
2022/04/12 00:20:40;;;;;;;24.70;19.20;;;7.60;99.90;;;;;;4939346;28;93478;-32
2022/04/12 00:23:06;;;;;;;22.77;18.52;;;7.60;99.90;;;;;;4939473;28;94760;-33
2022/04/12 00:25:31;;;;;;;24.17;19.23;;;7.60;99.90;;;;;;4937779;28;94654;-34
2022/04/12 00:27:59;;;;;;;27.60;19.90;;;7.70;99.90;;;;;;5021486;22;94814;-37
2022/04/12 00:30:26;;;;;;;24.23;19.75;;;7.60;99.90;;;;;;4997963;28;92694;-34
2022/04/12 00:32:52;;;;;;;20.13;17.93;;;7.60;99.90;;;;;;4997756;28;93960;-33
2022/04/12 00:35:19;;;;;;;25.55;18.92;;;7.60;99.90;;;;;;4998650;28;95633;-36
2022/04/12 00:37:46;;;;;;;25.13;19.67;;;7.60;99.90;;;;;;4997838;28;94844;-33
2022/04/12 00:40:13;;;;;;;25.60;19.42;;;7.60;99.90;;;;;;4997909;28;94692;-33
2022/04/12 00:42:38;;;;;;;23.55;20.02;;;7.60;99.90;;;;;;4998280;28;93393;-37
2022/04/12 00:45:06;;;;;;;20.63;17.52;;;7.60;99.90;;;;;;4998047;28;94542;-35
2022/04/12 00:47:31;;;;;;;21.40;18.65;;;7.60;99.90;;;;;;4997721;28;94764;-33
2022/04/12 00:49:57;;;;;;;25.42;19.50;;;7.50;99.90;;;;;;4997883;28;95207;-34
2022/04/12 00:52:24;;;;;;;21.20;18.98;;;7.60;99.90;;;;;;4997723;28;92944;-33
2022/04/12 00:54:50;;;;;;;22.85;18.48;;;7.50;99.90;;;;;;4996719;28;94635;-33
2022/04/12 00:57:16;;;;;;;24.02;19.42;;;7.50;99.90;;;;;;4997930;28;95027;-34
2022/04/12 00:59:45;;;;;;;25.27;18.77;;;7.50;99.90;;;;;;4997372;28;93132;-34
2022/04/12 01:02:10;;;;;;;20.15;18.05;;;7.40;99.90;;;;;;4997652;28;92166;-35
2022/04/12 01:04:36;;;;;;;25.48;19.88;;;7.40;99.90;;;;;;4997185;28;94691;-35
2022/04/12 01:07:02;;;;;;;19.20;17.13;;;7.40;99.90;;;;;;4997341;28;96418;-35
2022/04/12 01:09:28;;;;;;;19.92;17.45;;;7.40;99.90;;;;;;4997440;28;94967;-38
2022/04/12 01:11:56;;;;;;;25.73;21.27;;;7.40;99.90;;;;;;4998262;28;92162;-35
2022/04/12 01:14:23;;;;;;;21.30;19.08;;;7.40;99.90;;;;;;4996416;28;95955;-33
2022/04/12 01:16:49;;;;;;;21.65;19.42;;;7.30;99.90;;;;;;4997003;28;96155;-35
2022/04/12 01:19:15;;;;;;;22.15;16.75;;;7.20;99.90;;;;;;4998195;28;94412;-35
2022/04/12 01:21:54;;;;;;;24.35;18.77;;;7.30;99.90;;;;;;4997355;28;94226;-35
2022/04/12 01:24:20;;;;;;;;;;;7.30;99.90;;;;;;4997949;28;96843;-35
2022/04/12 01:26:46;;;;;;;26.23;19.33;;;7.20;99.90;;;;;;4998645;28;93941;-34
2022/04/12 01:29:12;;;;;;;22.52;18.45;;;7.10;99.90;;;;;;4997899;28;92502;-33
2022/04/12 01:31:38;;;;;;;20.67;18.48;;;7.10;99.90;;;;;;4997053;28;91776;-35
2022/04/12 01:34:03;;;;;;;21.75;18.33;;;7.10;99.90;;;;;;4997085;28;95277;-32
2022/04/12 01:36:29;;;;;;;24.42;19.00;;;7.00;99.90;;;;;;4996346;28;95055;-34
2022/04/12 01:38:54;;;;;;;21.05;17.35;;;7.00;99.90;;;;;;4996812;28;93963;-33
2022/04/12 01:41:20;;;;;;;24.15;19.83;;;7.00;99.90;;;;;;4997250;28;93477;-36
2022/04/12 01:43:45;;;;;;;24.08;18.30;;;6.90;99.90;;;;;;4996496;28;96033;-33
2022/04/12 01:46:11;;;;;;;21.52;19.08;;;7.00;99.90;;;;;;4997143;28;94552;-35
2022/04/12 01:48:37;;;;;;;23.45;19.58;;;7.00;99.90;;;;;;4996858;28;93145;-36
2022/04/12 01:51:02;;;;;;;22.75;19.77;;;6.90;99.90;;;;;;4997101;28;92735;-34
2022/04/12 01:53:28;;;;;;;22.35;19.48;;;7.00;99.90;;;;;;4996783;28;94977;-35
2022/04/12 01:55:53;;;;;;;21.77;17.95;;;6.90;99.90;;;;;;4996727;28;95005;-32
2022/04/12 01:58:19;;;;;;;27.50;18.98;;;6.90;99.90;;;;;;4979389;28;93480;-32
2022/04/12 02:00:45;;;;;;;21.65;18.80;;;6.90;99.90;;;;;;4996238;28;93035;-35
2022/04/12 02:03:11;;;;;;;22.02;18.15;;;6.80;99.90;;;;;;4996537;28;95655;-35
2022/04/12 02:05:36;;;;;;;25.85;18.58;;;6.70;99.90;;;;;;4996149;28;95468;-36
2022/04/12 02:08:02;;;;;;;23.35;17.02;;;6.80;99.90;;;;;;4997541;28;92557;-34
2022/04/12 02:10:28;;;;;;;24.90;17.85;;;6.80;99.90;;;;;;4996315;28;94479;-33
2022/04/12 02:12:53;;;;;;;21.23;18.98;;;6.80;99.90;;;;;;4995794;28;95099;-37
2022/04/12 02:15:19;;;;;;;23.90;19.23;;;6.70;99.90;;;;;;4997104;28;94171;-34
2022/04/12 02:17:45;;;;;;;25.92;19.58;;;6.70;99.90;;;;;;4996135;28;95181;-33
2022/04/12 02:20:10;;;;;;;20.35;17.73;;;6.70;99.90;;;;;;4997069;28;91898;-33
2022/04/12 02:22:37;;;;;;;24.52;19.17;;;6.60;99.90;;;;;;4996273;28;94680;-33
2022/04/12 02:25:04;;;;;;;21.67;18.08;;;6.70;99.90;;;;;;4996450;28;94642;-34
2022/04/12 02:27:29;;;;;;;22.60;18.58;;;6.60;99.90;;;;;;4996295;28;93709;-34
2022/04/12 02:29:55;;;;;;;23.42;19.88;;;6.50;99.90;;;;;;4996422;28;94703;-34
2022/04/12 02:32:21;;;;;;;20.58;17.42;;;6.50;99.90;;;;;;4996488;28;95135;-36
2022/04/12 02:34:46;;;;;;;20.92;18.70;;;6.50;99.90;;;;;;4996145;28;92851;-33
2022/04/12 02:37:12;;;;;;;22.52;20.20;;;6.40;99.90;;;;;;4996216;28;92131;-36
2022/04/12 02:39:38;;;;;;;21.42;18.10;;;6.30;99.90;;;;;;4996771;28;94861;-33
2022/04/12 02:42:04;;;;;;;19.50;15.57;;;6.30;99.90;;;;;;4996104;28;94535;-34
2022/04/12 02:44:29;;;;;;;20.15;17.88;;;6.40;99.90;;;;;;4996570;28;94530;-36
2022/04/12 02:46:55;;;;;;;19.48;17.38;;;6.30;99.90;;;;;;4995501;28;92936;-36
2022/04/12 02:49:21;;;;;;;23.83;19.55;;;6.40;99.90;;;;;;4996383;28;93618;-36
2022/04/12 02:51:47;;;;;;;24.25;18.58;;;6.30;99.90;;;;;;4995379;28;97698;-34
2022/04/12 02:54:13;;;;;;;21.73;18.40;;;6.30;99.90;;;;;;4995784;28;95359;-35
2022/04/12 02:56:38;;;;;;;26.95;18.88;;;6.30;99.90;;;;;;4996237;28;94838;-35
2022/04/12 02:59:04;;;;;;;20.75;18.55;;;6.30;99.90;;;;;;4977657;28;93850;-36
2022/04/12 03:01:30;;;;;;;22.27;18.70;;;6.30;99.90;;;;;;4995880;28;95305;-34
2022/04/12 03:03:56;;;;;;;21.35;17.08;;;6.30;99.90;;;;;;4995958;28;94540;-34
2022/04/12 03:06:21;;;;;;;22.63;17.42;;;6.40;99.90;;;;;;4995404;28;93567;-33
2022/04/12 03:08:47;;;;;;;23.40;18.70;;;6.30;99.90;;;;;;4996550;28;93663;-33
2022/04/12 03:11:13;;;;;;;19.95;17.83;;;6.20;99.90;;;;;;4994999;28;95299;-36
2022/04/12 03:13:38;;;;;;;23.98;19.25;;;6.20;99.90;;;;;;4995883;28;94495;-33
2022/04/12 03:16:04;;;;;;;26.33;20.88;;;6.10;99.90;;;;;;4995680;28;93054;-33
2022/04/12 03:18:30;;;;;;;20.55;18.35;;;6.10;99.90;;;;;;4995318;28;93413;-32
2022/04/12 03:20:55;;;;;;;25.25;18.95;;;6.20;99.90;;;;;;4995160;28;94606;-32
2022/04/12 03:23:21;;;;;;;22.75;18.42;;;6.10;99.90;;;;;;4995138;28;95832;-34
2022/04/12 03:25:46;;;;;;;24.33;19.33;;;6.10;99.90;;;;;;4996093;28;93036;-36
2022/04/12 03:28:14;;;;;;;21.52;19.08;;;6.00;99.90;;;;;;4995453;28;94550;-36
2022/04/12 03:30:40;;;;;;;20.80;18.27;;;6.00;99.90;;;;;;4995231;28;95089;-37
2022/04/12 03:33:05;;;;;;;21.00;18.00;;;6.00;99.90;;;;;;4995984;28;94639;-33
2022/04/12 03:35:31;;;;;;;21.25;17.90;;;6.00;99.90;;;;;;4996025;28;95010;-33
2022/04/12 03:38:00;;;;;;;20.30;17.85;;;6.00;99.90;;;;;;4995582;28;92253;-35
2022/04/12 03:40:27;;;;;;;23.38;19.30;;;6.00;99.90;;;;;;4994870;28;95733;-33
2022/04/12 03:42:53;;;;;;;22.10;18.58;;;6.00;99.90;;;;;;4994881;28;95229;-35
2022/04/12 03:45:19;;;;;;;22.10;19.00;;;6.10;99.90;;;;;;4995192;28;94238;-33
2022/04/12 03:47:45;;;;;;;28.70;19.30;;;6.00;99.90;;;;;;4995419;28;93451;-33
2022/04/12 03:50:10;;;;;;;26.38;19.52;;;5.90;99.90;;;;;;4995443;28;94323;-33
2022/04/12 03:52:36;;;;;;;20.75;18.38;;;5.80;99.90;;;;;;4995379;28;94968;-36
2022/04/12 03:55:04;;;;;;;21.90;18.52;;;5.80;99.90;;;;;;4995305;28;94077;-34
2022/04/12 03:57:30;;;;;;;28.17;19.65;;;5.70;99.90;;;;;;4995461;28;93870;-34
2022/04/12 03:59:56;;;;;;;21.17;18.88;;;5.80;99.90;;;;;;4996408;28;93754;-36
2022/04/12 04:02:22;;;;;;;22.83;19.90;;;5.80;99.90;;;;;;4998381;28;94878;-39
2022/04/12 04:04:47;;;;;;;23.60;20.42;;;5.70;99.90;;;;;;4997695;28;94416;-35
2022/04/12 04:07:13;;;;;;;21.83;19.55;;;5.70;99.90;;;;;;4998362;28;94218;-32
2022/04/12 04:09:38;;;;;;;24.52;18.95;;;5.70;99.90;;;;;;4997452;28;95539;-32
2022/04/12 04:12:04;;;;;;;23.20;18.02;;;5.70;99.90;;;;;;4999180;28;96039;-31
2022/04/12 04:14:31;;;;;;;20.58;17.48;;;5.60;99.90;;;;;;4998606;28;94677;-35
2022/04/12 04:16:58;;;;;;;19.50;17.48;;;5.70;99.90;;;;;;4979538;28;93395;-35
2022/04/12 04:19:24;;;;;;;22.45;18.75;;;5.60;99.90;;;;;;4998579;28;94723;-36
2022/04/12 04:21:49;;;;;;;22.55;20.23;;;5.60;99.90;;;;;;4998444;28;93441;-37
2022/04/12 04:24:15;;;;;;;22.17;18.23;;;5.70;99.90;;;;;;4998884;28;94448;-36
2022/04/12 04:26:40;;;;;;;22.08;19.75;;;5.80;99.90;;;;;;4997759;28;94247;-35
2022/04/12 04:29:06;;;;;;;22.90;20.05;;;5.80;99.90;;;;;;4997025;28;95817;-35
2022/04/12 04:31:32;;;;;;;22.02;18.10;;;5.80;99.90;;;;;;4998174;28;95698;-34
2022/04/12 04:33:58;;;;;;;24.98;18.15;;;5.80;99.90;;;;;;4997879;28;92097;-33
2022/04/12 04:36:23;;;;;;;23.17;19.48;;;5.80;99.90;;;;;;4998278;28;93463;-34
2022/04/12 04:38:49;;;;;;;21.88;18.98;;;5.80;99.90;;;;;;4997467;28;96178;-34
2022/04/12 04:41:14;;;;;;;23.95;19.77;;;5.90;99.90;;;;;;4997798;28;95391;-34
2022/04/12 04:43:40;;;;;;;20.92;16.52;;;5.80;99.90;;;;;;4998056;28;93064;-32
2022/04/12 04:46:06;;;;;;;22.65;19.25;;;5.80;99.90;;;;;;4998464;28;91333;-33
2022/04/12 04:48:31;;;;;;;21.63;17.92;;;5.80;99.90;;;;;;4998083;28;94507;-34
2022/04/12 04:50:57;;;;;;;21.73;17.83;;;5.80;99.90;;;;;;4996789;28;94577;-36
2022/04/12 04:53:22;;;;;;;21.38;19.10;;;5.80;99.90;;;;;;4997913;28;94282;-32
2022/04/12 04:55:48;;;;;;;18.85;15.50;;;5.80;99.90;;;;;;4997111;28;93301;-34
2022/04/12 04:58:13;;;;;;;25.33;20.75;;;5.80;99.90;;;;;;4997751;28;95061;-33
2022/04/12 05:00:39;;;;;;;18.48;16.48;;;5.80;99.90;;;;;;4997451;28;96410;-33
2022/04/12 05:03:05;;;;;;;22.27;19.00;;;5.90;99.90;;;;;;4997767;28;93966;-34
2022/04/12 05:05:31;;;;;;;25.02;18.70;;;5.80;99.90;;;;;;4997765;28;94196;-34
2022/04/12 05:07:58;;;;;;;27.52;19.13;;;5.80;99.90;;;;;;4978926;28;94896;-33
2022/04/12 05:10:29;;;;;;;22.50;18.10;;;5.70;99.90;;;;;;4996878;28;94490;-33
2022/04/12 05:12:56;;;;;;;24.60;19.67;;;5.70;99.90;;;;;;4997789;28;92120;-32
2022/04/12 05:15:22;;;;;;;23.17;18.52;;;5.70;99.90;;;;;;4997675;28;94417;-36
2022/04/12 05:17:52;;;;;;;22.00;19.50;;;5.80;99.90;;;;;;4978308;28;95621;-35
2022/04/12 05:20:19;;;;;;;26.13;17.92;;;5.70;99.90;;;;;;4997821;28;95414;-34
2022/04/12 05:22:45;;;;;;;28.20;18.77;;;5.70;99.90;;;;;;4997062;28;93252;-34
2022/04/12 05:25:11;;;;;;;22.30;19.90;;;5.70;99.90;;;;;;4997837;28;93454;-35
2022/04/12 05:27:36;;;;;;;20.45;17.73;;;5.70;99.90;;;;;;4996463;28;94920;-36
2022/04/12 05:30:04;;;;;;;27.42;19.15;;;5.70;99.90;;;;;;4954524;28;94300;-35
2022/04/12 05:32:30;;;;;;;21.67;18.25;;;5.70;99.90;;;;;;4979172;28;94868;-39
2022/04/12 05:34:55;;;;;;;22.05;18.50;;;5.70;99.90;;;;;;4977828;28;93739;-34
2022/04/12 05:37:21;;;;;;;25.35;18.80;;;5.70;99.90;;;;;;4975943;28;94551;-37
2022/04/12 05:39:47;;;;;;;23.38;18.80;;;5.80;99.90;;;;;;4977211;28;94580;-34
2022/04/12 05:42:13;;;;;;;21.45;18.33;;;5.70;99.90;;;;;;4976682;28;93506;-32
2022/04/12 05:44:38;;;;;;;22.83;18.55;;;5.80;99.90;;;;;;4977458;28;93765;-38
2022/04/12 05:47:04;;;;;;;22.80;19.00;;;5.90;99.90;;;;;;4977186;28;93341;-33
2022/04/12 05:49:31;;;;;;;20.50;16.73;;;6.00;99.90;;;;;;4977238;28;94266;-36
2022/04/12 05:51:56;;;;;;;22.38;17.38;;;6.10;99.90;;;;;;4977219;28;94827;-34
2022/04/12 05:54:23;;;;;;;21.80;18.05;;;6.30;99.90;;;;;;4975682;28;93231;-34
2022/04/12 05:56:49;;;;;;;22.77;17.52;;;6.50;99.90;;;;;;4974891;28;94797;-33
2022/04/12 05:59:14;;;;;;;25.58;20.15;;;6.70;99.90;;;;;;4975735;28;94490;-33
2022/04/12 06:01:40;;;;;;;22.30;17.35;;;6.80;99.90;;;;;;4974764;28;93027;-35
2022/04/12 06:04:07;;;;;;;21.80;17.75;;;6.90;99.90;;;;;;4975553;28;92693;-36
2022/04/12 06:06:33;;;;;;;26.52;18.70;;;7.00;99.90;;;;;;4973307;28;95158;-33
2022/04/12 06:08:59;;;;;;;19.55;17.52;;;7.00;99.90;;;;;;4974497;28;95488;-34
2022/04/12 06:11:25;;;;;;;21.05;18.58;;;7.20;99.90;;;;;;4975552;28;94734;-32
2022/04/12 06:13:51;;;;;;;24.35;19.38;;;7.30;99.90;;;;;;4974577;28;93858;-32
2022/04/12 06:16:16;;;;;;;20.90;17.83;;;7.30;99.90;;;;;;4974705;28;94566;-36
2022/04/12 06:18:42;;;;;;;22.33;17.67;;;7.40;99.90;;;;;;4973923;28;94515;-32
2022/04/12 06:21:07;;;;;;;25.90;17.55;;;7.40;99.90;;;;;;4974812;28;94714;-37
2022/04/12 06:23:33;;;;;;;25.85;14.95;;;7.50;99.90;;;;;;4974890;28;93767;-35
2022/04/12 06:25:58;;;;;;;22.92;17.25;;;7.60;99.90;;;;;;4973942;28;93700;-38
2022/04/12 06:28:24;;;;;;;22.77;18.13;;;7.60;99.90;;;;;;4974958;28;93162;-33
2022/04/12 06:30:49;;;;;;;22.58;16.08;;;7.70;99.90;;;;;;4974073;28;93941;-35
2022/04/12 06:33:15;;;;;;;19.38;16.58;;;7.80;99.90;;;;;;4975100;28;93309;-34
2022/04/12 06:35:41;;;;;;;24.77;17.75;;;7.90;99.90;;;;;;4973962;28;94714;-34
2022/04/12 06:38:08;;;;;;;19.05;16.73;;;7.90;99.90;;;;;;4974465;28;94098;-39
2022/04/12 06:40:35;;;;;;;22.63;17.27;;;7.90;99.90;;;;;;4975325;28;94588;-35
2022/04/12 06:43:01;;;;;;;19.13;14.90;;;8.10;99.90;;;;;;4974166;28;94018;-33
2022/04/12 06:45:27;;;;;;;28.77;17.85;;;8.20;99.90;;;;;;4973836;28;94939;-34
2022/04/12 06:47:58;;;;;;;20.27;16.30;;;8.40;99.90;;;;;;4974763;28;94452;-34
2022/04/12 06:50:24;;;;;;;22.77;16.83;;;8.50;99.90;;;;;;4975054;28;92790;-34
2022/04/12 06:52:50;;;;;;;21.65;16.50;;;8.70;99.90;;;;;;4973757;28;93412;-36
2022/04/12 06:55:16;;;;;;;20.23;15.80;;;8.80;99.90;;;;;;4973478;28;96360;-35
2022/04/12 06:57:42;;;;;;;18.58;14.60;;;8.80;99.90;;;;;;4974487;28;95804;-35
2022/04/12 07:00:09;;;;;;;21.55;17.25;;;8.90;99.90;;;;;;4973774;28;92291;-33
2022/04/12 07:02:35;;;;;;;19.00;17.00;;;9.00;99.90;;;;;;4974545;28;94524;-37
2022/04/12 07:05:02;;;;;;;20.25;16.23;;;8.90;99.90;;;;;;4973763;28;95983;-32
2022/04/12 07:07:28;;;;;;;20.35;17.60;;;8.90;99.90;;;;;;4972177;28;94853;-36
2022/04/12 07:09:55;;;;;;;15.30;13.63;;;9.00;99.90;;;;;;4974190;28;92186;-36
2022/04/12 07:12:20;;;;;;;18.02;15.60;;;9.00;99.90;;;;;;4974528;28;91477;-36
2022/04/12 07:14:46;;;;;;;21.77;15.23;;;9.10;99.90;;;;;;4973360;28;94362;-33
2022/04/12 07:17:11;;;;;;;18.35;15.45;;;9.00;99.90;;;;;;4974079;28;94780;-34
2022/04/12 07:19:37;;;;;;;20.05;16.75;;;9.00;99.90;;;;;;4972631;28;94327;-36
2022/04/12 07:22:04;;;;;;;17.48;15.25;;;9.00;99.90;;;;;;4974342;28;93174;-33
2022/04/12 07:24:30;;;;;;;18.45;14.98;;;9.00;99.90;;;;;;4973891;28;94636;-33
2022/04/12 07:26:56;;;;;;;17.05;15.35;;;9.10;99.90;;;;;;4973215;28;94372;-34
2022/04/12 07:29:22;;;;;;;20.98;16.38;;;9.20;99.90;;;;;;4973213;28;94485;-34
2022/04/12 07:31:48;;;;;;;19.20;15.00;;;9.30;99.90;;;;;;5005289;28;93144;-36
2022/04/12 07:34:14;;;;;;;17.45;13.77;;;9.30;99.90;;;;;;4974483;28;94627;-34
2022/04/12 07:36:43;;;;;;;21.83;17.05;;;9.50;99.90;;;;;;4977678;28;93356;-34
2022/04/12 07:39:09;;;;;;;19.65;15.02;;;9.70;99.90;;;;;;4977336;28;92799;-34
2022/04/12 07:41:34;;;;;;;25.15;15.95;;;9.80;99.90;;;;;;4976203;28;94187;-35
2022/04/12 07:44:00;;;;;;;20.33;15.13;;;10.10;99.90;;;;;;4976614;28;95442;-37
2022/04/12 07:46:26;;;;;;;16.98;13.60;;;10.20;99.90;;;;;;4976316;28;95879;-33
2022/04/12 07:48:52;;;;;;;18.63;14.07;;;10.40;99.90;;;;;;4977478;28;93535;-38
2022/04/12 07:51:17;;;;;;;18.60;15.13;;;10.70;99.90;;;;;;4976947;28;93072;-36
2022/04/12 07:53:43;;;;;;;15.02;13.43;;;11.10;99.90;;;;;;4976083;28;94824;-36
2022/04/12 07:56:08;;;;;;;17.00;14.00;;;11.40;99.90;;;;;;4976465;28;93696;-36
2022/04/12 07:58:34;;;;;;;19.73;15.43;;;11.40;99.90;;;;;;4976991;28;94445;-35
2022/04/12 08:01:00;;;;;;;18.63;13.98;;;11.60;99.90;;;;;;4977082;28;92574;-33
2022/04/12 08:03:25;;;;;;;17.42;14.15;;;11.60;99.90;;;;;;4976613;28;94317;-34
2022/04/12 08:05:51;;;;;;;16.90;13.88;;;11.50;99.90;;;;;;4976474;28;94951;-39
2022/04/12 08:08:17;;;;;;;15.23;13.63;;;11.80;99.90;;;;;;4976240;28;94712;-36
2022/04/12 08:10:43;;;;;;;19.98;14.73;;;12.00;99.90;;;;;;4976218;28;94617;-35
2022/04/12 08:13:09;;;;;;;15.77;13.85;;;12.30;99.90;;;;;;4977383;28;95320;-33
2022/04/12 08:15:34;;;;;;;19.00;13.93;;;12.20;99.90;;;;;;4976249;28;92972;-36
2022/04/12 08:18:00;;;;;;;22.65;14.63;;;12.20;99.90;;;;;;4975098;28;94386;-39
2022/04/12 08:20:25;;;;;;;18.92;15.02;;;12.10;99.90;;;;;;4975941;28;94748;-34
2022/04/12 08:22:52;;;;;;;18.92;14.10;;;12.50;99.70;;;;;;4975798;28;94736;-38
2022/04/12 08:25:18;;;;;;;15.82;12.57;;;12.50;99.90;;;;;;4976703;28;94550;-36
2022/04/12 08:27:45;;;;;;;17.88;13.15;;;12.80;99.90;;;;;;4976223;28;94505;-33
2022/04/12 08:30:11;;;;;;;20.08;15.18;;;12.60;98.40;;;;;;4976158;28;94367;-31
2022/04/12 08:32:37;;;;;;;20.02;12.98;;;12.90;93.50;;;;;;4975461;28;95708;-35
2022/04/12 08:35:04;;;;;;;14.40;12.50;;;12.90;90.50;;;;;;4975476;28;95758;-33
2022/04/12 08:37:29;;;;;;;13.98;12.57;;;13.20;93.50;;;;;;4976175;28;94084;-35
2022/04/12 08:39:55;;;;;;;16.48;13.07;;;13.50;79.40;;;;;;4975871;28;93204;-34
2022/04/12 08:42:21;;;;;;;16.42;14.73;;;13.40;78.30;;;;;;4975034;28;94617;-35
2022/04/12 08:44:47;;;;;;;15.40;13.32;;;13.60;93.80;;;;;;4975454;28;94284;-35
2022/04/12 08:47:18;;;;;;;15.00;13.40;;;13.60;88.30;;;;;;4975627;28;94275;-34
2022/04/12 08:49:44;;;;;;;19.38;12.90;;;13.70;88.20;;;;;;4976466;28;93408;-37
2022/04/12 08:52:11;;;;;;;16.60;13.40;;;13.80;79.00;;;;;;4975512;28;94628;-34
2022/04/12 08:54:38;;;;;;;14.50;12.05;;;13.90;82.50;;;;;;5008554;28;94903;-34
2022/04/12 08:57:04;;;;;;;15.35;11.15;;;13.90;78.30;;;;;;4975658;28;94365;-33
2022/04/12 08:59:30;;;;;;;18.95;12.52;;;13.80;81.10;;;;;;4975637;28;93734;-35
2022/04/12 09:01:57;;;;;;;15.13;12.00;;;13.90;78.70;;;;;;4975913;28;94411;-36
2022/04/12 09:04:26;;;;;;;16.15;13.25;;;14.20;91.20;;;;;;4975500;28;97048;-35
2022/04/12 09:06:54;;;;;;;14.20;12.23;;;14.40;78.40;;;;;;4975418;28;93312;-34
2022/04/12 09:09:22;;;;;;;21.75;13.77;;;14.40;77.20;;;;;;4975445;28;93774;-35
2022/04/12 09:12:11;;;;;;;18.23;12.77;;;14.50;76.50;;;;;;4974993;28;94631;-36
2022/04/12 09:14:46;;;;;;;13.50;12.00;;;14.60;79.40;;;;;;4975071;28;94776;-33
2022/04/12 09:17:35;;;;;;;13.88;11.45;;;14.90;75.80;;;;;;4976192;28;93617;-34
2022/04/12 09:20:03;;;;;;;13.65;12.25;;;14.80;73.60;;;;;;4975519;28;94382;-37
2022/04/12 09:22:31;;;;;;;14.90;13.13;;;15.00;72.80;;;;;;4974883;28;96758;-34
2022/04/12 09:25:02;;;;;;;20.25;12.82;;;15.20;74.00;;;;;;4975283;28;94660;-34
2022/04/12 09:27:30;;;;;;;13.85;11.65;;;15.60;73.20;;;;;;4975776;28;92937;-33
2022/04/12 09:29:57;;;;;;;15.07;12.45;;;15.70;68.40;;;;;;4974891;28;93076;-33
2022/04/12 09:32:25;;;;;;;20.13;11.95;;;15.30;76.60;;;;;;4974615;28;94618;-33
2022/04/12 09:34:52;;;;;;;15.40;13.20;;;15.20;79.30;;;;;;4975322;28;94456;-35
2022/04/12 09:37:19;;;;;;;14.48;11.70;;;15.50;86.80;;;;;;4975501;28;92896;-36
2022/04/12 09:39:58;;;;;;;18.38;12.65;;;16.00;74.80;;;;;;4975687;28;92009;-34
2022/04/12 09:42:50;;;;;;;16.88;11.40;;;16.00;72.90;;;;;;4974852;28;94779;-34
2022/04/12 09:45:22;;;;;;;12.70;11.38;;;16.00;65.80;;;;;;4975129;28;94741;-35
2022/04/12 09:47:49;;;;;;;14.02;11.65;;;16.00;68.50;;;;;;4974098;28;94123;-35
2022/04/12 09:50:15;;;;;;;14.57;11.65;;;16.30;68.70;;;;;;4975483;28;95204;-34
2022/04/12 09:52:53;;;;;;;14.75;12.02;;;16.30;66.90;;;;;;4974718;28;94799;-35
2022/04/12 09:55:39;;;;;;;10.15;9.15;;;16.30;67.10;;;;;;4974613;28;93052;-35
2022/04/12 09:58:07;;;;;;;14.32;11.80;;;16.50;70.40;;;;;;4974306;28;93347;-34
2022/04/12 10:00:33;;;;;;;14.13;12.40;;;16.70;66.60;;;;;;4975091;28;94585;-33
2022/04/12 10:03:01;;;;;;;14.35;10.80;;;16.70;71.90;;;;;;4974634;28;95412;-34
2022/04/12 10:05:28;;;;;;;13.57;12.00;;;16.90;71.20;;;;;;4974909;28;94515;-36
2022/04/12 10:07:59;;;;;;;12.32;11.07;;;17.20;68.60;;;;;;4973927;28;92398;-34
2022/04/12 10:10:26;;;;;;;12.45;11.13;;;17.30;66.00;;;;;;4974501;28;93247;-37
2022/04/12 10:12:54;;;;;;;12.73;11.07;;;17.30;65.60;;;;;;4973778;28;95674;-37
2022/04/12 10:15:20;;;;;;;19.38;10.88;;;17.10;63.90;;;;;;4975040;28;96383;-33
2022/04/12 10:17:48;;;;;;;15.30;11.82;;;17.40;64.40;;;;;;4974744;28;93751;-33
2022/04/12 10:20:15;;;;;;;15.60;11.35;;;17.00;66.50;;;;;;4973877;28;94646;-36
2022/04/12 10:22:42;;;;;;;12.43;10.23;;;17.10;65.40;;;;;;4973666;28;94646;-35
2022/04/12 10:25:09;;;;;;;14.95;11.48;;;16.80;62.90;;;;;;4974387;28;94576;-34
2022/04/12 10:27:37;;;;;;;13.98;10.48;;;16.90;62.90;;;;;;4974488;28;93733;-34
2022/04/12 10:30:17;;;;;;;13.13;11.23;;;17.20;64.30;;;;;;4974665;28;93903;-35
2022/04/12 10:33:05;;;;;;;11.30;10.15;;;17.30;64.60;;;;;;4973557;28;94865;-37
2022/04/12 10:35:46;;;;;;;13.23;11.73;;;17.30;62.10;;;;;;4974043;28;94554;-33
2022/04/12 10:38:13;;;;;;;13.48;11.57;;;17.60;64.80;;;;;;4974049;28;95777;-35
2022/04/12 10:40:53;;;;;;;17.27;10.75;;;17.60;62.30;;;;;;4973924;28;92219;-35
2022/04/12 10:43:29;;;;;;;14.82;11.23;;;17.50;63.10;;;;;;4973787;28;94612;-34
2022/04/12 10:45:57;;;;;;;12.57;11.25;;;17.80;63.60;;;;;;4973703;28;95041;-35
2022/04/12 10:48:24;;;;;;;11.95;10.75;;;17.90;64.50;;;;;;4974413;28;92972;-34
2022/04/12 10:50:52;;;;;;;12.23;10.77;;;18.00;63.00;;;;;;4974791;28;93561;-35
2022/04/12 10:53:39;;;;;;;17.88;12.98;;;18.00;65.20;;;;;;4973797;28;94765;-37
2022/04/12 10:56:15;;;;;;;14.35;10.80;;;17.90;64.30;;;;;;4974078;28;94617;-37
2022/04/12 10:58:44;;;;;;;12.15;10.27;;;17.70;61.50;;;;;;4973825;28;94296;-37
2022/04/12 11:01:14;;;;;;;18.13;12.18;;;18.00;65.70;;;;;;4974573;28;93617;-38
2022/04/12 11:03:40;;;;;;;13.00;10.40;;;18.20;62.60;;;;;;4973516;28;96206;-37
2022/04/12 11:06:13;;;;;;;17.08;12.60;;;18.10;61.30;;;;;;4973899;28;96358;-34
2022/04/12 11:08:43;;;;;;;17.65;11.82;;;17.80;63.50;;;;;;4975067;28;94540;-36
2022/04/12 11:11:10;;;;;;;14.70;11.13;;;17.80;65.80;;;;;;4977857;28;93699;-37
2022/04/12 11:13:35;;;;;;;17.02;12.40;;;18.00;64.40;;;;;;4977607;28;94746;-35
2022/04/12 11:16:07;;;;;;;19.85;10.85;;;18.10;62.80;;;;;;4977202;28;94689;-34
2022/04/12 11:18:47;;;;;;;14.70;10.48;;;18.00;61.00;;;;;;4977088;28;93218;-36
2022/04/12 11:21:13;;;;;;;14.02;11.23;;;18.10;60.00;;;;;;4977873;28;93312;-35
2022/04/12 11:23:51;;;;;;;14.05;11.38;;;18.10;60.80;;;;;;4976844;28;94460;-34
2022/04/12 11:26:40;;;;;;;15.93;11.20;;;18.20;60.90;;;;;;4976596;28;94462;-33
2022/04/12 11:29:08;;;;;;;14.23;11.52;;;18.30;60.70;;;;;;4976894;28;95075;-34
2022/04/12 11:31:38;;;;;;;13.30;11.75;;;18.30;59.70;;;;;;4976738;28;93984;-37
2022/04/12 11:34:06;;;;;;;17.42;10.10;;;18.50;61.70;;;;;;4976742;28;94593;-35
2022/04/12 11:36:32;;;;;;;12.38;10.25;;;18.60;61.10;;;;;;4977365;28;94457;-35
2022/04/12 11:38:57;;;;;;;16.73;11.75;;;18.70;63.00;;;;;;4976932;28;94234;-36
2022/04/12 11:41:23;;;;;;;12.02;10.88;;;18.40;60.80;;;;;;4977143;28;93141;-34
2022/04/12 11:43:58;;;;;;;16.80;12.15;;;18.60;64.10;;;;;;4976923;28;94820;-37
2022/04/12 11:46:23;;;;;;;13.82;10.93;;;18.30;61.20;;;;;;4976679;28;94450;-33
2022/04/12 11:48:49;;;;;;;19.42;12.13;;;18.50;62.90;;;;;;4977661;28;94559;-38
2022/04/12 11:51:17;;;;;;;12.45;11.02;;;18.60;61.80;;;;;;4977084;28;93591;-35
2022/04/12 11:53:48;;;;;;;;;;;18.50;60.40;;;;;;4976477;28;95995;-36
2022/04/12 11:56:14;;;;;;;14.85;11.50;;;18.40;60.20;;;;;;4978456;28;94823;-36
2022/04/12 11:58:40;;;;;;;13.57;11.45;;;18.40;61.70;;;;;;4977160;28;93052;-34
2022/04/12 12:01:05;;;;;;;13.50;12.02;;;18.40;61.40;;;;;;4975265;28;92156;-34
2022/04/12 12:03:34;;;;;;;13.48;12.05;;;18.20;62.00;;;;;;4976164;28;95197;-34
2022/04/12 12:06:01;;;;;;;13.50;11.52;;;18.20;61.50;;;;;;4976651;28;94172;-38
2022/04/12 12:08:26;;;;;;;13.80;12.30;;;18.30;61.30;;;;;;4977047;28;93250;-34
2022/04/12 12:10:53;;;;;;;13.75;12.00;;;18.40;62.30;;;;;;4976827;28;94540;-33
2022/04/12 12:13:23;;;;;;;13.90;11.60;;;18.60;61.90;;;;;;4976700;28;96119;-34
2022/04/12 12:15:49;;;;;;;20.42;12.40;;;18.70;62.00;;;;;;4976296;28;93327;-40
2022/04/12 12:18:18;;;;;;;15.93;11.40;;;18.90;61.80;;;;;;4975822;28;94879;-37
2022/04/12 12:20:46;;;;;;;11.80;10.65;;;19.00;62.00;;;;;;4975338;28;92659;-35
2022/04/12 12:23:11;;;;;;;;;;;19.20;61.50;;;;;;4976986;28;96494;-39
2022/04/12 12:25:53;;;;;;;17.40;12.10;;;19.50;62.30;;;;;;4977930;28;93887;-37
2022/04/12 12:28:24;;;;;;;17.13;12.20;;;19.40;59.40;;;;;;4990087;22;95116;-33
2022/04/12 12:31:16;;;;;;;14.55;12.02;;;19.20;59.00;;;;;;4955511;28;93067;-37
2022/04/12 12:33:46;;;;;;;15.93;13.20;;;19.60;62.30;;;;;;4955974;28;94528;-35
2022/04/12 12:36:23;;;;;;;16.13;12.98;;;19.30;58.80;;;;;;4956989;28;94506;-34